sensor_id;sensor_type;location;lat;lon;timestamp;P1;durP1;ratioP1;P2;durP2;ratioP2
2892;SDS011;1456;51.840;12.184;2023-03-01T00:01:57;0.40;;;0.40;;
2892;SDS011;1456;51.840;12.184;2023-03-01T00:06:52;1.77;;;1.27;;
2892;SDS011;1456;51.840;12.184;2023-03-01T00:09:18;2.23;;;2.13;;
2892;SDS011;1456;51.840;12.184;2023-03-01T00:11:44;0.83;;;0.70;;
2892;SDS011;1456;51.840;12.184;2023-03-01T00:14:11;7.50;;;2.30;;
2892;SDS011;1456;51.840;12.184;2023-03-01T00:16:38;0.40;;;0.40;;
2892;SDS011;1456;51.840;12.184;2023-03-01T00:19:08;3.80;;;3.60;;
2892;SDS011;1456;51.840;12.184;2023-03-01T00:21:37;1.57;;;1.47;;
2892;SDS011;1456;51.840;12.184;2023-03-01T00:24:04;0.40;;;0.40;;
2892;SDS011;1456;51.840;12.184;2023-03-01T00:26:31;1.00;;;0.63;;
2892;SDS011;1456;51.840;12.184;2023-03-01T00:28:58;0.73;;;0.73;;
2892;SDS011;1456;51.840;12.184;2023-03-01T00:31:26;0.33;;;0.33;;
2892;SDS011;1456;51.840;12.184;2023-03-01T00:33:54;1.60;;;1.50;;
2892;SDS011;1456;51.840;12.184;2023-03-01T00:36:24;0.70;;;0.70;;
2892;SDS011;1456;51.840;12.184;2023-03-01T00:38:51;0.50;;;0.50;;
2892;SDS011;1456;51.840;12.184;2023-03-01T00:41:17;0.30;;;0.30;;
2892;SDS011;1456;51.840;12.184;2023-03-01T00:43:44;0.60;;;0.60;;
2892;SDS011;1456;51.840;12.184;2023-03-01T00:46:20;0.97;;;0.53;;
2892;SDS011;1456;51.840;12.184;2023-03-01T00:48:49;1.07;;;1.07;;
2892;SDS011;1456;51.840;12.184;2023-03-01T00:51:25;1.00;;;0.90;;
2892;SDS011;1456;51.840;12.184;2023-03-01T00:53:53;2.67;;;1.77;;
2892;SDS011;1456;51.840;12.184;2023-03-01T00:56:22;0.90;;;0.90;;
2892;SDS011;1456;51.840;12.184;2023-03-01T00:58:49;1.83;;;1.73;;
2892;SDS011;1456;51.840;12.184;2023-03-01T01:01:17;0.60;;;0.60;;
2892;SDS011;1456;51.840;12.184;2023-03-01T01:06:58;0.90;;;0.90;;
2892;SDS011;1456;51.840;12.184;2023-03-01T01:09:01;2.70;;;2.60;;
2892;SDS011;1456;51.840;12.184;2023-03-01T01:11:30;0.40;;;0.40;;
2892;SDS011;1456;51.840;12.184;2023-03-01T01:13:56;0.60;;;0.60;;
2892;SDS011;1456;51.840;12.184;2023-03-01T01:16:23;0.40;;;0.40;;
2892;SDS011;1456;51.840;12.184;2023-03-01T01:18:51;1.23;;;1.13;;
2892;SDS011;1456;51.840;12.184;2023-03-01T01:21:19;5.40;;;2.20;;
2892;SDS011;1456;51.840;12.184;2023-03-01T01:23:47;0.70;;;0.70;;
2892;SDS011;1456;51.840;12.184;2023-03-01T01:26:17;0.90;;;0.80;;
2892;SDS011;1456;51.840;12.184;2023-03-01T01:28:56;0.60;;;0.60;;
2892;SDS011;1456;51.840;12.184;2023-03-01T01:31:22;0.90;;;0.83;;
2892;SDS011;1456;51.840;12.184;2023-03-01T01:33:50;0.50;;;0.50;;
2892;SDS011;1456;51.840;12.184;2023-03-01T01:36:16;1.27;;;0.70;;
2892;SDS011;1456;51.840;12.184;2023-03-01T01:38:42;0.53;;;0.53;;
2892;SDS011;1456;51.840;12.184;2023-03-01T01:41:08;6.53;;;2.70;;
2892;SDS011;1456;51.840;12.184;2023-03-01T01:43:40;0.87;;;0.87;;
2892;SDS011;1456;51.840;12.184;2023-03-01T01:46:26;1.00;;;0.90;;
2892;SDS011;1456;51.840;12.184;2023-03-01T01:49:09;0.70;;;0.70;;
2892;SDS011;1456;51.840;12.184;2023-03-01T01:51:57;0.30;;;0.30;;
2892;SDS011;1456;51.840;12.184;2023-03-01T01:54:50;0.30;;;0.30;;
2892;SDS011;1456;51.840;12.184;2023-03-01T01:57:29;0.30;;;0.30;;
2892;SDS011;1456;51.840;12.184;2023-03-01T01:59:59;0.50;;;0.50;;
2892;SDS011;1456;51.840;12.184;2023-03-01T02:02:28;0.87;;;0.87;;
2892;SDS011;1456;51.840;12.184;2023-03-01T02:05:01;0.70;;;0.70;;
2892;SDS011;1456;51.840;12.184;2023-03-01T02:07:35;0.30;;;0.30;;
2892;SDS011;1456;51.840;12.184;2023-03-01T02:12:33;1.13;;;1.13;;
2892;SDS011;1456;51.840;12.184;2023-03-01T02:15:00;0.50;;;0.50;;
2892;SDS011;1456;51.840;12.184;2023-03-01T02:17:26;3.90;;;2.67;;
2892;SDS011;1456;51.840;12.184;2023-03-01T02:22:55;0.90;;;0.90;;
2892;SDS011;1456;51.840;12.184;2023-03-01T02:28:05;0.80;;;0.80;;
2892;SDS011;1456;51.840;12.184;2023-03-01T02:30:36;0.93;;;0.93;;
2892;SDS011;1456;51.840;12.184;2023-03-01T02:33:22;1.03;;;1.03;;
2892;SDS011;1456;51.840;12.184;2023-03-01T02:35:49;0.70;;;0.60;;
2892;SDS011;1456;51.840;12.184;2023-03-01T02:38:16;0.70;;;0.70;;
2892;SDS011;1456;51.840;12.184;2023-03-01T02:40:43;2.63;;;2.53;;
2892;SDS011;1456;51.840;12.184;2023-03-01T02:43:10;0.50;;;0.50;;
2892;SDS011;1456;51.840;12.184;2023-03-01T02:45:36;0.50;;;0.50;;
2892;SDS011;1456;51.840;12.184;2023-03-01T02:48:02;0.60;;;0.60;;
2892;SDS011;1456;51.840;12.184;2023-03-01T02:55:41;0.60;;;0.60;;
2892;SDS011;1456;51.840;12.184;2023-03-01T02:58:07;2.07;;;1.47;;
2892;SDS011;1456;51.840;12.184;2023-03-01T03:00:37;0.93;;;0.93;;
2892;SDS011;1456;51.840;12.184;2023-03-01T03:03:20;0.30;;;0.30;;
2892;SDS011;1456;51.840;12.184;2023-03-01T03:05:47;1.03;;;1.03;;
2892;SDS011;1456;51.840;12.184;2023-03-01T03:08:13;0.30;;;0.30;;
2892;SDS011;1456;51.840;12.184;2023-03-01T03:10:49;1.00;;;1.00;;
2892;SDS011;1456;51.840;12.184;2023-03-01T03:13:15;0.47;;;0.47;;
2892;SDS011;1456;51.840;12.184;2023-03-01T03:15:44;0.87;;;0.87;;
2892;SDS011;1456;51.840;12.184;2023-03-01T03:18:17;1.37;;;1.27;;
2892;SDS011;1456;51.840;12.184;2023-03-01T03:20:44;1.27;;;1.17;;
2892;SDS011;1456;51.840;12.184;2023-03-01T03:23:10;0.67;;;0.67;;
2892;SDS011;1456;51.840;12.184;2023-03-01T03:25:36;0.40;;;0.40;;
2892;SDS011;1456;51.840;12.184;2023-03-01T03:28:03;1.17;;;1.17;;
2892;SDS011;1456;51.840;12.184;2023-03-01T03:30:34;0.30;;;0.30;;
2892;SDS011;1456;51.840;12.184;2023-03-01T03:33:04;0.40;;;0.40;;
2892;SDS011;1456;51.840;12.184;2023-03-01T03:35:40;0.43;;;0.43;;
2892;SDS011;1456;51.840;12.184;2023-03-01T03:38:08;0.50;;;0.50;;
2892;SDS011;1456;51.840;12.184;2023-03-01T03:40:44;0.50;;;0.50;;
2892;SDS011;1456;51.840;12.184;2023-03-01T03:43:27;1.33;;;1.23;;
2892;SDS011;1456;51.840;12.184;2023-03-01T03:45:53;0.83;;;0.83;;
2892;SDS011;1456;51.840;12.184;2023-03-01T03:48:19;6.63;;;1.80;;
2892;SDS011;1456;51.840;12.184;2023-03-01T03:50:49;2.27;;;2.17;;
2892;SDS011;1456;51.840;12.184;2023-03-01T03:53:20;2.53;;;2.47;;
2892;SDS011;1456;51.840;12.184;2023-03-01T03:55:47;3.83;;;3.50;;
2892;SDS011;1456;51.840;12.184;2023-03-01T03:58:16;0.50;;;0.50;;
2892;SDS011;1456;51.840;12.184;2023-03-01T04:00:44;2.80;;;2.70;;
2892;SDS011;1456;51.840;12.184;2023-03-01T04:03:12;0.67;;;0.67;;
2892;SDS011;1456;51.840;12.184;2023-03-01T04:05:40;0.30;;;0.30;;
2892;SDS011;1456;51.840;12.184;2023-03-01T04:08:06;11.10;;;2.17;;
2892;SDS011;1456;51.840;12.184;2023-03-01T04:10:34;0.47;;;0.47;;
2892;SDS011;1456;51.840;12.184;2023-03-01T04:13:02;1.00;;;1.00;;
2892;SDS011;1456;51.840;12.184;2023-03-01T04:15:29;0.97;;;0.63;;
2892;SDS011;1456;51.840;12.184;2023-03-01T04:17:57;0.97;;;0.97;;
2892;SDS011;1456;51.840;12.184;2023-03-01T04:20:24;3.47;;;3.23;;
2892;SDS011;1456;51.840;12.184;2023-03-01T04:25:23;0.63;;;0.63;;
2892;SDS011;1456;51.840;12.184;2023-03-01T04:27:49;0.77;;;0.73;;
2892;SDS011;1456;51.840;12.184;2023-03-01T04:30:15;3.07;;;2.87;;
2892;SDS011;1456;51.840;12.184;2023-03-01T04:32:41;0.60;;;0.60;;
2892;SDS011;1456;51.840;12.184;2023-03-01T04:35:07;2.13;;;1.60;;
2892;SDS011;1456;51.840;12.184;2023-03-01T04:37:33;0.77;;;0.77;;
2892;SDS011;1456;51.840;12.184;2023-03-01T04:40:00;0.50;;;0.50;;
2892;SDS011;1456;51.840;12.184;2023-03-01T04:42:32;1.60;;;1.53;;
2892;SDS011;1456;51.840;12.184;2023-03-01T04:44:58;1.87;;;1.77;;
2892;SDS011;1456;51.840;12.184;2023-03-01T04:47:24;0.73;;;0.60;;
2892;SDS011;1456;51.840;12.184;2023-03-01T04:49:49;0.30;;;0.30;;
2892;SDS011;1456;51.840;12.184;2023-03-01T04:52:15;0.70;;;0.60;;
2892;SDS011;1456;51.840;12.184;2023-03-01T04:54:41;1.30;;;1.23;;
2892;SDS011;1456;51.840;12.184;2023-03-01T04:57:08;1.90;;;1.73;;
2892;SDS011;1456;51.840;12.184;2023-03-01T04:59:33;1.77;;;0.63;;
2892;SDS011;1456;51.840;12.184;2023-03-01T05:02:01;0.30;;;0.30;;
2892;SDS011;1456;51.840;12.184;2023-03-01T05:04:26;0.30;;;0.30;;
2892;SDS011;1456;51.840;12.184;2023-03-01T05:06:53;0.53;;;0.53;;
2892;SDS011;1456;51.840;12.184;2023-03-01T05:09:18;0.40;;;0.40;;
2892;SDS011;1456;51.840;12.184;2023-03-01T05:11:44;0.43;;;0.43;;
2892;SDS011;1456;51.840;12.184;2023-03-01T05:14:10;0.50;;;0.50;;
2892;SDS011;1456;51.840;12.184;2023-03-01T05:16:36;1.57;;;1.47;;
2892;SDS011;1456;51.840;12.184;2023-03-01T05:19:03;0.60;;;0.60;;
2892;SDS011;1456;51.840;12.184;2023-03-01T05:21:44;1.23;;;1.23;;
2892;SDS011;1456;51.840;12.184;2023-03-01T05:24:29;2.50;;;1.70;;
2892;SDS011;1456;51.840;12.184;2023-03-01T05:26:55;3.90;;;0.90;;
2892;SDS011;1456;51.840;12.184;2023-03-01T05:29:21;10.50;;;1.40;;
2892;SDS011;1456;51.840;12.184;2023-03-01T05:31:58;0.40;;;0.40;;
2892;SDS011;1456;51.840;12.184;2023-03-01T05:34:28;0.50;;;0.50;;
2892;SDS011;1456;51.840;12.184;2023-03-01T05:36:55;1.33;;;1.33;;
2892;SDS011;1456;51.840;12.184;2023-03-01T05:39:23;3.77;;;1.93;;
2892;SDS011;1456;51.840;12.184;2023-03-01T05:41:54;1.33;;;1.33;;
2892;SDS011;1456;51.840;12.184;2023-03-01T05:44:21;0.90;;;0.90;;
2892;SDS011;1456;51.840;12.184;2023-03-01T05:46:47;0.60;;;0.60;;
2892;SDS011;1456;51.840;12.184;2023-03-01T05:49:14;0.87;;;0.87;;
2892;SDS011;1456;51.840;12.184;2023-03-01T05:51:41;1.00;;;0.70;;
2892;SDS011;1456;51.840;12.184;2023-03-01T05:54:08;1.07;;;0.97;;
2892;SDS011;1456;51.840;12.184;2023-03-01T05:56:35;0.47;;;0.47;;
2892;SDS011;1456;51.840;12.184;2023-03-01T05:59:03;0.60;;;0.60;;
2892;SDS011;1456;51.840;12.184;2023-03-01T06:01:30;0.47;;;0.47;;
2892;SDS011;1456;51.840;12.184;2023-03-01T06:04:00;1.13;;;1.13;;
2892;SDS011;1456;51.840;12.184;2023-03-01T06:06:27;1.30;;;1.20;;
2892;SDS011;1456;51.840;12.184;2023-03-01T06:08:53;0.30;;;0.30;;
2892;SDS011;1456;51.840;12.184;2023-03-01T06:11:19;0.40;;;0.40;;
2892;SDS011;1456;51.840;12.184;2023-03-01T06:13:45;0.63;;;0.63;;
2892;SDS011;1456;51.840;12.184;2023-03-01T06:16:13;3.50;;;2.93;;
2892;SDS011;1456;51.840;12.184;2023-03-01T06:18:40;0.30;;;0.30;;
2892;SDS011;1456;51.840;12.184;2023-03-01T06:21:06;0.40;;;0.40;;
2892;SDS011;1456;51.840;12.184;2023-03-01T06:23:32;1.53;;;0.57;;
2892;SDS011;1456;51.840;12.184;2023-03-01T06:25:58;1.80;;;1.70;;
2892;SDS011;1456;51.840;12.184;2023-03-01T06:28:25;0.87;;;0.87;;
2892;SDS011;1456;51.840;12.184;2023-03-01T06:30:51;0.87;;;0.87;;
2892;SDS011;1456;51.840;12.184;2023-03-01T06:33:16;0.30;;;0.30;;
2892;SDS011;1456;51.840;12.184;2023-03-01T06:35:45;0.53;;;0.53;;
2892;SDS011;1456;51.840;12.184;2023-03-01T06:38:11;1.60;;;1.60;;
2892;SDS011;1456;51.840;12.184;2023-03-01T06:40:40;0.30;;;0.30;;
2892;SDS011;1456;51.840;12.184;2023-03-01T06:43:06;0.33;;;0.33;;
2892;SDS011;1456;51.840;12.184;2023-03-01T06:45:32;0.40;;;0.40;;
2892;SDS011;1456;51.840;12.184;2023-03-01T06:48:02;1.33;;;1.07;;
2892;SDS011;1456;51.840;12.184;2023-03-01T06:50:32;0.70;;;0.63;;
2892;SDS011;1456;51.840;12.184;2023-03-01T06:53:00;1.07;;;0.97;;
2892;SDS011;1456;51.840;12.184;2023-03-01T06:55:26;0.97;;;0.97;;
2892;SDS011;1456;51.840;12.184;2023-03-01T06:57:56;1.80;;;1.70;;
2892;SDS011;1456;51.840;12.184;2023-03-01T07:00:22;1.73;;;0.63;;
2892;SDS011;1456;51.840;12.184;2023-03-01T07:02:49;0.50;;;0.50;;
2892;SDS011;1456;51.840;12.184;2023-03-01T07:05:15;0.70;;;0.70;;
2892;SDS011;1456;51.840;12.184;2023-03-01T07:07:41;4.10;;;1.50;;
2892;SDS011;1456;51.840;12.184;2023-03-01T07:10:07;1.03;;;1.03;;
2892;SDS011;1456;51.840;12.184;2023-03-01T07:12:33;0.50;;;0.50;;
2892;SDS011;1456;51.840;12.184;2023-03-01T07:14:59;0.50;;;0.50;;
2892;SDS011;1456;51.840;12.184;2023-03-01T07:17:24;0.97;;;0.93;;
2892;SDS011;1456;51.840;12.184;2023-03-01T07:19:50;0.60;;;0.60;;
2892;SDS011;1456;51.840;12.184;2023-03-01T07:22:16;0.30;;;0.20;;
2892;SDS011;1456;51.840;12.184;2023-03-01T07:24:43;0.30;;;0.30;;
2892;SDS011;1456;51.840;12.184;2023-03-01T07:27:09;0.60;;;0.60;;
2892;SDS011;1456;51.840;12.184;2023-03-01T07:29:35;0.50;;;0.50;;
2892;SDS011;1456;51.840;12.184;2023-03-01T07:32:03;0.40;;;0.40;;
2892;SDS011;1456;51.840;12.184;2023-03-01T07:34:30;2.30;;;2.20;;
2892;SDS011;1456;51.840;12.184;2023-03-01T07:36:56;1.80;;;0.60;;
2892;SDS011;1456;51.840;12.184;2023-03-01T07:39:22;0.30;;;0.30;;
2892;SDS011;1456;51.840;12.184;2023-03-01T07:41:49;1.77;;;1.67;;
2892;SDS011;1456;51.840;12.184;2023-03-01T07:44:16;0.30;;;0.30;;
2892;SDS011;1456;51.840;12.184;2023-03-01T07:46:42;0.63;;;0.63;;
2892;SDS011;1456;51.840;12.184;2023-03-01T07:49:08;0.30;;;0.30;;
2892;SDS011;1456;51.840;12.184;2023-03-01T07:51:34;1.53;;;1.43;;
2892;SDS011;1456;51.840;12.184;2023-03-01T07:54:00;1.23;;;0.77;;
2892;SDS011;1456;51.840;12.184;2023-03-01T07:56:25;0.83;;;0.70;;
2892;SDS011;1456;51.840;12.184;2023-03-01T07:58:51;0.87;;;0.87;;
2892;SDS011;1456;51.840;12.184;2023-03-01T08:01:18;0.87;;;0.83;;
2892;SDS011;1456;51.840;12.184;2023-03-01T08:03:47;0.50;;;0.50;;
2892;SDS011;1456;51.840;12.184;2023-03-01T08:06:14;1.67;;;1.67;;
2892;SDS011;1456;51.840;12.184;2023-03-01T08:08:41;1.50;;;1.50;;
2892;SDS011;1456;51.840;12.184;2023-03-01T08:11:10;0.43;;;0.43;;
2892;SDS011;1456;51.840;12.184;2023-03-01T08:13:39;0.40;;;0.40;;
2892;SDS011;1456;51.840;12.184;2023-03-01T08:16:05;0.87;;;0.87;;
2892;SDS011;1456;51.840;12.184;2023-03-01T08:18:33;0.60;;;0.60;;
2892;SDS011;1456;51.840;12.184;2023-03-01T08:21:03;0.83;;;0.70;;
2892;SDS011;1456;51.840;12.184;2023-03-01T08:23:32;0.50;;;0.50;;
2892;SDS011;1456;51.840;12.184;2023-03-01T08:28:43;0.77;;;0.77;;
2892;SDS011;1456;51.840;12.184;2023-03-01T08:31:14;0.70;;;0.70;;
2892;SDS011;1456;51.840;12.184;2023-03-01T08:33:40;0.60;;;0.60;;
2892;SDS011;1456;51.840;12.184;2023-03-01T08:36:07;0.73;;;0.73;;
2892;SDS011;1456;51.840;12.184;2023-03-01T08:38:33;0.60;;;0.60;;
2892;SDS011;1456;51.840;12.184;2023-03-01T08:41:00;1.57;;;1.33;;
2892;SDS011;1456;51.840;12.184;2023-03-01T08:43:27;1.00;;;1.00;;
2892;SDS011;1456;51.840;12.184;2023-03-01T08:45:53;0.80;;;0.80;;
2892;SDS011;1456;51.840;12.184;2023-03-01T08:48:19;0.90;;;0.90;;
2892;SDS011;1456;51.840;12.184;2023-03-01T08:50:45;1.67;;;1.67;;
2892;SDS011;1456;51.840;12.184;2023-03-01T08:53:11;2.73;;;1.77;;
2892;SDS011;1456;51.840;12.184;2023-03-01T08:55:37;1.40;;;1.40;;
2892;SDS011;1456;51.840;12.184;2023-03-01T08:58:03;2.50;;;2.40;;
2892;SDS011;1456;51.840;12.184;2023-03-01T09:00:28;2.17;;;2.17;;
2892;SDS011;1456;51.840;12.184;2023-03-01T09:02:56;1.70;;;1.70;;
2892;SDS011;1456;51.840;12.184;2023-03-01T09:05:22;2.20;;;2.20;;
2892;SDS011;1456;51.840;12.184;2023-03-01T09:07:47;1.90;;;1.80;;
2892;SDS011;1456;51.840;12.184;2023-03-01T09:10:14;2.50;;;2.50;;
2892;SDS011;1456;51.840;12.184;2023-03-01T09:12:44;5.33;;;4.93;;
2892;SDS011;1456;51.840;12.184;2023-03-01T09:15:10;3.63;;;3.63;;
2892;SDS011;1456;51.840;12.184;2023-03-01T09:17:36;3.43;;;3.33;;
2892;SDS011;1456;51.840;12.184;2023-03-01T09:20:02;3.73;;;3.73;;
2892;SDS011;1456;51.840;12.184;2023-03-01T09:22:30;3.23;;;3.23;;
2892;SDS011;1456;51.840;12.184;2023-03-01T09:24:58;5.40;;;5.30;;
2892;SDS011;1456;51.840;12.184;2023-03-01T09:27:25;4.53;;;4.43;;
2892;SDS011;1456;51.840;12.184;2023-03-01T09:29:52;4.20;;;4.00;;
2892;SDS011;1456;51.840;12.184;2023-03-01T09:32:18;4.93;;;4.80;;
2892;SDS011;1456;51.840;12.184;2023-03-01T09:34:44;4.27;;;4.27;;
2892;SDS011;1456;51.840;12.184;2023-03-01T09:37:31;4.23;;;4.23;;
2892;SDS011;1456;51.840;12.184;2023-03-01T09:39:58;3.50;;;3.50;;
2892;SDS011;1456;51.840;12.184;2023-03-01T09:42:24;5.33;;;5.13;;
2892;SDS011;1456;51.840;12.184;2023-03-01T09:45:03;4.70;;;4.60;;
2892;SDS011;1456;51.840;12.184;2023-03-01T09:47:35;4.57;;;4.53;;
2892;SDS011;1456;51.840;12.184;2023-03-01T09:50:06;13.10;;;12.70;;
2892;SDS011;1456;51.840;12.184;2023-03-01T09:55:37;11.70;;;11.60;;
2892;SDS011;1456;51.840;12.184;2023-03-01T10:00:39;13.33;;;13.10;;
2892;SDS011;1456;51.840;12.184;2023-03-01T10:03:18;13.33;;;13.10;;
2892;SDS011;1456;51.840;12.184;2023-03-01T10:06:19;14.93;;;14.63;;
2892;SDS011;1456;51.840;12.184;2023-03-01T10:11:23;16.13;;;15.83;;
2892;SDS011;1456;51.840;12.184;2023-03-01T10:17:57;15.07;;;14.77;;
2892;SDS011;1456;51.840;12.184;2023-03-01T10:20:20;17.30;;;17.00;;
2892;SDS011;1456;51.840;12.184;2023-03-01T10:23:03;15.60;;;15.30;;
2892;SDS011;1456;51.840;12.184;2023-03-01T10:42:34;12.80;;;12.60;;
2892;SDS011;1456;51.840;12.184;2023-03-01T10:51:49;9.87;;;9.67;;
2892;SDS011;1456;51.840;12.184;2023-03-01T10:57:04;14.77;;;14.57;;
2892;SDS011;1456;51.840;12.184;2023-03-01T10:59:31;17.27;;;16.77;;
2892;SDS011;1456;51.840;12.184;2023-03-01T11:07:28;14.63;;;14.00;;
2892;SDS011;1456;51.840;12.184;2023-03-01T11:09:54;14.37;;;13.77;;
2892;SDS011;1456;51.840;12.184;2023-03-01T11:12:21;19.73;;;19.13;;
2892;SDS011;1456;51.840;12.184;2023-03-01T11:14:51;18.63;;;18.23;;
2892;SDS011;1456;51.840;12.184;2023-03-01T11:20:56;12.10;;;11.63;;
2892;SDS011;1456;51.840;12.184;2023-03-01T11:22:55;17.57;;;17.07;;
2892;SDS011;1456;51.840;12.184;2023-03-01T11:25:29;15.90;;;15.60;;
2892;SDS011;1456;51.840;12.184;2023-03-01T11:28:06;17.70;;;17.30;;
2892;SDS011;1456;51.840;12.184;2023-03-01T11:30:47;18.40;;;18.00;;
2892;SDS011;1456;51.840;12.184;2023-03-01T11:35:49;17.77;;;17.40;;
2892;SDS011;1456;51.840;12.184;2023-03-01T11:38:24;16.50;;;16.10;;
2892;SDS011;1456;51.840;12.184;2023-03-01T11:40:58;19.07;;;18.40;;
2892;SDS011;1456;51.840;12.184;2023-03-01T12:14:05;18.70;;;18.23;;
2892;SDS011;1456;51.840;12.184;2023-03-01T12:20:03;18.23;;;17.83;;
2892;SDS011;1456;51.840;12.184;2023-03-01T12:22:47;17.37;;;16.97;;
2892;SDS011;1456;51.840;12.184;2023-03-01T12:28:02;17.60;;;17.20;;
2892;SDS011;1456;51.840;12.184;2023-03-01T12:36:31;18.37;;;17.97;;
2892;SDS011;1456;51.840;12.184;2023-03-01T12:47:47;19.63;;;19.10;;
2892;SDS011;1456;51.840;12.184;2023-03-01T12:50:21;20.80;;;20.30;;
2892;SDS011;1456;51.840;12.184;2023-03-01T12:52:53;20.47;;;19.97;;
2892;SDS011;1456;51.840;12.184;2023-03-01T12:55:29;21.63;;;21.03;;
2892;SDS011;1456;51.840;12.184;2023-03-01T13:06:50;20.47;;;19.97;;
2892;SDS011;1456;51.840;12.184;2023-03-01T13:12:03;22.20;;;21.60;;
2892;SDS011;1456;51.840;12.184;2023-03-01T13:14:50;19.50;;;19.07;;
2892;SDS011;1456;51.840;12.184;2023-03-01T13:17:32;20.53;;;19.93;;
2892;SDS011;1456;51.840;12.184;2023-03-01T13:20:11;13.20;;;12.90;;
2892;SDS011;1456;51.840;12.184;2023-03-01T13:22:40;14.50;;;13.97;;
2892;SDS011;1456;51.840;12.184;2023-03-01T13:25:14;23.50;;;22.80;;
2892;SDS011;1456;51.840;12.184;2023-03-01T13:27:44;22.80;;;22.17;;
2892;SDS011;1456;51.840;12.184;2023-03-01T13:30:58;20.47;;;19.87;;
2892;SDS011;1456;51.840;12.184;2023-03-01T13:35:50;23.73;;;22.93;;
2892;SDS011;1456;51.840;12.184;2023-03-01T13:41:10;21.10;;;20.50;;
2892;SDS011;1456;51.840;12.184;2023-03-01T13:43:38;24.70;;;23.93;;
2892;SDS011;1456;51.840;12.184;2023-03-01T13:46:16;23.47;;;22.87;;
2892;SDS011;1456;51.840;12.184;2023-03-01T13:48:49;23.87;;;23.13;;
2892;SDS011;1456;51.840;12.184;2023-03-01T13:51:20;25.50;;;24.50;;
2892;SDS011;1456;51.840;12.184;2023-03-01T13:53:50;28.50;;;27.47;;
2892;SDS011;1456;51.840;12.184;2023-03-01T13:56:27;35.97;;;34.13;;
2892;SDS011;1456;51.840;12.184;2023-03-01T13:59:00;26.10;;;25.10;;
2892;SDS011;1456;51.840;12.184;2023-03-01T14:01:30;28.57;;;27.47;;
2892;SDS011;1456;51.840;12.184;2023-03-01T14:03:58;27.83;;;26.93;;
2892;SDS011;1456;51.840;12.184;2023-03-01T14:06:26;27.60;;;26.47;;
2892;SDS011;1456;51.840;12.184;2023-03-01T14:19:31;24.83;;;24.03;;
2892;SDS011;1456;51.840;12.184;2023-03-01T14:21:59;23.30;;;22.70;;
2892;SDS011;1456;51.840;12.184;2023-03-01T14:25:22;28.43;;;27.20;;
2892;SDS011;1456;51.840;12.184;2023-03-01T14:27:35;23.00;;;22.40;;
2892;SDS011;1456;51.840;12.184;2023-03-01T14:30:10;24.13;;;23.43;;
2892;SDS011;1456;51.840;12.184;2023-03-01T14:32:43;23.03;;;22.43;;
2892;SDS011;1456;51.840;12.184;2023-03-01T14:35:22;45.90;;;42.80;;
2892;SDS011;1456;51.840;12.184;2023-03-01T14:37:50;30.27;;;28.87;;
2892;SDS011;1456;51.840;12.184;2023-03-01T14:40:35;25.33;;;24.63;;
2892;SDS011;1456;51.840;12.184;2023-03-01T14:43:02;26.40;;;25.10;;
2892;SDS011;1456;51.840;12.184;2023-03-01T14:45:35;34.13;;;32.60;;
2892;SDS011;1456;51.840;12.184;2023-03-01T14:48:02;25.33;;;24.63;;
2892;SDS011;1456;51.840;12.184;2023-03-01T14:53:02;27.87;;;26.97;;
2892;SDS011;1456;51.840;12.184;2023-03-01T14:55:37;32.30;;;30.80;;
2892;SDS011;1456;51.840;12.184;2023-03-01T14:58:18;27.87;;;26.83;;
2892;SDS011;1456;51.840;12.184;2023-03-01T15:00:50;26.90;;;26.03;;
2892;SDS011;1456;51.840;12.184;2023-03-01T15:06:09;26.07;;;25.27;;
2892;SDS011;1456;51.840;12.184;2023-03-01T15:08:48;28.10;;;26.80;;
2892;SDS011;1456;51.840;12.184;2023-03-01T15:11:18;30.13;;;29.10;;
2892;SDS011;1456;51.840;12.184;2023-03-01T15:13:48;25.47;;;24.73;;
2892;SDS011;1456;51.840;12.184;2023-03-01T15:16:19;25.57;;;24.87;;
2892;SDS011;1456;51.840;12.184;2023-03-01T15:21:26;25.70;;;24.97;;
2892;SDS011;1456;51.840;12.184;2023-03-01T15:23:59;26.30;;;25.50;;
2892;SDS011;1456;51.840;12.184;2023-03-01T15:26:43;25.25;;;24.55;;
2892;SDS011;1456;51.840;12.184;2023-03-01T15:29:19;27.90;;;26.83;;
2892;SDS011;1456;51.840;12.184;2023-03-01T15:31:54;23.40;;;22.80;;
2892;SDS011;1456;51.840;12.184;2023-03-01T15:34:33;25.83;;;24.90;;
2892;SDS011;1456;51.840;12.184;2023-03-01T15:37:02;23.10;;;22.30;;
2892;SDS011;1456;51.840;12.184;2023-03-01T15:39:43;23.57;;;22.37;;
2892;SDS011;1456;51.840;12.184;2023-03-01T15:47:55;25.07;;;23.47;;
2892;SDS011;1456;51.840;12.184;2023-03-01T15:50:27;21.40;;;20.90;;
2892;SDS011;1456;51.840;12.184;2023-03-01T15:52:57;20.67;;;20.17;;
2892;SDS011;1456;51.840;12.184;2023-03-01T15:55:26;21.20;;;20.60;;
2892;SDS011;1456;51.840;12.184;2023-03-01T15:58:13;22.23;;;21.63;;
2892;SDS011;1456;51.840;12.184;2023-03-01T16:00:44;21.63;;;21.03;;
2892;SDS011;1456;51.840;12.184;2023-03-01T16:03:10;21.37;;;20.87;;
2892;SDS011;1456;51.840;12.184;2023-03-01T16:05:37;20.70;;;20.17;;
2892;SDS011;1456;51.840;12.184;2023-03-01T16:08:03;20.70;;;20.20;;
2892;SDS011;1456;51.840;12.184;2023-03-01T16:10:33;23.47;;;22.67;;
2892;SDS011;1456;51.840;12.184;2023-03-01T16:13:00;24.93;;;24.23;;
2892;SDS011;1456;51.840;12.184;2023-03-01T16:15:28;23.70;;;23.10;;
2892;SDS011;1456;51.840;12.184;2023-03-01T16:17:56;20.37;;;19.90;;
2892;SDS011;1456;51.840;12.184;2023-03-01T16:20:27;21.27;;;20.73;;
2892;SDS011;1456;51.840;12.184;2023-03-01T16:22:59;19.13;;;18.63;;
2892;SDS011;1456;51.840;12.184;2023-03-01T16:25:31;18.97;;;18.57;;
2892;SDS011;1456;51.840;12.184;2023-03-01T16:27:57;19.23;;;18.83;;
2892;SDS011;1456;51.840;12.184;2023-03-01T16:30:25;19.30;;;18.90;;
2892;SDS011;1456;51.840;12.184;2023-03-01T16:32:53;18.67;;;18.17;;
2892;SDS011;1456;51.840;12.184;2023-03-01T16:35:20;21.40;;;20.60;;
2892;SDS011;1456;51.840;12.184;2023-03-01T16:37:49;21.10;;;20.30;;
2892;SDS011;1456;51.840;12.184;2023-03-01T16:40:25;22.47;;;21.73;;
2892;SDS011;1456;51.840;12.184;2023-03-01T16:42:55;20.73;;;20.23;;
2892;SDS011;1456;51.840;12.184;2023-03-01T16:45:27;25.87;;;24.97;;
2892;SDS011;1456;51.840;12.184;2023-03-01T16:47:57;20.80;;;20.30;;
2892;SDS011;1456;51.840;12.184;2023-03-01T16:50:23;23.63;;;23.03;;
2892;SDS011;1456;51.840;12.184;2023-03-01T16:52:49;24.90;;;24.27;;
2892;SDS011;1456;51.840;12.184;2023-03-01T16:55:15;25.87;;;24.90;;
2892;SDS011;1456;51.840;12.184;2023-03-01T16:57:42;21.37;;;20.80;;
2892;SDS011;1456;51.840;12.184;2023-03-01T17:00:08;23.70;;;22.93;;
2892;SDS011;1456;51.840;12.184;2023-03-01T17:02:36;26.57;;;25.53;;
2892;SDS011;1456;51.840;12.184;2023-03-01T17:05:02;13.60;;;13.20;;
2892;SDS011;1456;51.840;12.184;2023-03-01T17:07:30;12.00;;;11.80;;
2892;SDS011;1456;51.840;12.184;2023-03-01T17:10:03;14.87;;;14.27;;
2892;SDS011;1456;51.840;12.184;2023-03-01T17:12:30;13.20;;;12.80;;
2892;SDS011;1456;51.840;12.184;2023-03-01T17:14:59;12.60;;;12.40;;
2892;SDS011;1456;51.840;12.184;2023-03-01T17:17:25;14.97;;;14.30;;
2892;SDS011;1456;51.840;12.184;2023-03-01T17:19:51;14.77;;;13.90;;
2892;SDS011;1456;51.840;12.184;2023-03-01T17:22:18;13.67;;;13.07;;
2892;SDS011;1456;51.840;12.184;2023-03-01T17:24:44;12.53;;;12.23;;
2892;SDS011;1456;51.840;12.184;2023-03-01T17:27:11;12.13;;;11.93;;
2892;SDS011;1456;51.840;12.184;2023-03-01T17:29:39;11.33;;;11.13;;
2892;SDS011;1456;51.840;12.184;2023-03-01T17:32:05;12.07;;;11.80;;
2892;SDS011;1456;51.840;12.184;2023-03-01T17:34:31;12.53;;;12.23;;
2892;SDS011;1456;51.840;12.184;2023-03-01T17:36:59;12.30;;;11.90;;
2892;SDS011;1456;51.840;12.184;2023-03-01T17:39:25;11.90;;;11.70;;
2892;SDS011;1456;51.840;12.184;2023-03-01T17:41:56;12.77;;;12.40;;
2892;SDS011;1456;51.840;12.184;2023-03-01T17:44:22;12.73;;;12.17;;
2892;SDS011;1456;51.840;12.184;2023-03-01T17:46:48;12.07;;;11.77;;
2892;SDS011;1456;51.840;12.184;2023-03-01T17:49:15;14.17;;;13.50;;
2892;SDS011;1456;51.840;12.184;2023-03-01T17:51:44;13.27;;;12.83;;